Time;durP1;ratioP1;P1;durP2;ratioP2;P2;SDS_P1;SDS_P2;PMS_P1;PMS_P2;Temp;Humidity;BMP_temperature;BMP_pressure;BME280_temperature;BME280_humidity;BME280_pressure;Samples;Min_cycle;Max_cycle;Signal;HPM_P1;HPM_P2
2022/07/16 00:03:03;;;;;;;4.55;1.27;;;;;;;13.28;67.86;101218.13;5153636;27;20045;-77
2022/07/16 00:06:07;;;;;;;4.75;1.10;;;;;;;13.33;67.43;101209.06;5152756;27;20038;-77
2022/07/16 00:09:12;;;;;;;8.48;2.03;;;;;;;13.22;67.76;101212.22;5152826;27;20095;-77
2022/07/16 00:12:15;;;;;;;3.67;1.20;;;;;;;13.09;68.07;101218.19;5153117;27;20092;-77
2022/07/16 00:15:18;;;;;;;;;;;;;;;13.11;68.09;101217.16;5153369;27;20102;-77
2022/07/16 00:21:44;;;;;;;4.10;1.10;;;;;;;13.06;68.02;101219.19;5152914;27;20042;-78
2022/07/16 00:24:48;;;;;;;4.05;1.52;;;;;;;12.90;68.64;101213.03;5132334;27;20122;-77
2022/07/16 00:27:51;;;;;;;5.25;1.00;;;;;;;13.08;67.99;101214.72;5132633;27;20096;-77
2022/07/16 00:30:55;;;;;;;4.28;1.23;;;;;;;13.10;68.04;101218.09;5119522;27;21187;-77
2022/07/16 00:33:58;;;;;;;5.50;1.27;;;;;;;12.95;68.55;101209.22;5132045;27;20180;-77
2022/07/16 00:37:01;;;;;;;3.78;1.25;;;;;;;12.95;68.67;101218.88;5129814;27;20046;-77
2022/07/16 00:40:06;;;;;;;4.80;1.83;;;;;;;12.94;68.58;101212.78;5132002;27;20110;-77
2022/07/16 00:43:14;;;;;;;4.65;1.50;;;;;;;12.74;68.68;101200.69;5132166;27;20104;-77
2022/07/16 00:46:18;;;;;;;5.65;1.33;;;;;;;12.64;69.17;101204.72;5131035;27;20049;-77
2022/07/16 00:49:21;;;;;;;7.05;1.80;;;;;;;12.53;69.58;101209.63;5149776;27;20095;-77
2022/07/16 00:52:24;;;;;;;4.32;1.45;;;;;;;12.63;69.08;101202.16;5152348;27;20065;-77
2022/07/16 00:55:29;;;;;;;4.43;1.33;;;;;;;12.49;69.51;101203.69;5152195;27;20057;-78
2022/07/16 00:58:32;;;;;;;7.18;1.48;;;;;;;12.48;69.85;101209.03;5152146;27;20095;-77
2022/07/16 01:01:36;;;;;;;4.03;1.25;;;;;;;12.56;69.57;101205.06;5151550;27;20123;-78
2022/07/16 01:04:39;;;;;;;7.03;1.38;;;;;;;12.55;69.89;101206.00;5152678;27;20077;-77
2022/07/16 01:07:43;;;;;;;3.53;1.90;;;;;;;12.68;69.86;101203.63;5152793;27;20511;-77
2022/07/16 01:10:46;;;;;;;5.03;1.40;;;;;;;12.58;70.28;101210.25;5152738;27;20069;-77
2022/07/16 01:13:51;;;;;;;4.90;1.55;;;;;;;12.33;70.84;101202.75;5152231;27;20547;-77
2022/07/16 01:16:54;;;;;;;7.53;1.40;;;;;;;12.24;71.15;101205.81;5118150;27;20042;-78
2022/07/16 01:19:57;;;;;;;3.33;1.25;;;;;;;12.22;71.24;101207.66;5146754;27;20099;-78
2022/07/16 01:23:01;;;;;;;;;;;;;;;12.13;71.37;101206.34;5153000;27;20041;-77
2022/07/16 01:26:04;;;;;;;7.07;1.40;;;;;;;12.13;70.92;101203.72;5152148;27;19918;-77
2022/07/16 01:29:08;;;;;;;4.88;1.30;;;;;;;12.10;71.14;101199.47;5151993;27;20456;-77
2022/07/16 01:32:12;;;;;;;9.77;1.35;;;;;;;12.25;70.64;101192.66;5151983;27;20445;-77
2022/07/16 01:35:15;;;;;;;;;;;;;;;12.36;70.43;101199.97;5151287;27;20146;-78
2022/07/16 01:38:18;;;;;;;3.28;1.40;;;;;;;12.19;71.13;101203.44;5150382;27;19918;-77
2022/07/16 01:41:21;;;;;;;;;;;;;;;12.02;71.89;101203.38;5151591;27;20046;-77
2022/07/16 01:44:28;;;;;;;3.28;1.40;;;;;;;12.04;71.93;101198.91;5131722;27;19957;-77
2022/07/16 01:47:31;;;;;;;3.78;1.25;;;;;;;12.03;72.03;101197.22;5131376;27;20045;-77
2022/07/16 01:50:35;;;;;;;4.18;1.55;;;;;;;12.08;71.54;101201.28;5131352;27;20061;-78
2022/07/16 01:53:38;;;;;;;6.13;1.48;;;;;;;11.96;72.43;101201.03;5130982;27;20038;-77
2022/07/16 01:56:42;;;;;;;4.03;1.85;;;;;;;11.82;72.39;101194.63;5136923;27;20091;-77
2022/07/16 01:59:46;;;;;;;4.97;2.13;;;;;;;11.82;72.55;101194.63;5138529;27;20127;-77
2022/07/16 02:02:50;;;;;;;8.45;1.33;;;;;;;11.84;72.38;101187.59;5151841;27;20478;-77
2022/07/16 02:05:53;;;;;;;5.70;1.38;;;;;;;12.12;71.70;101194.13;5152203;27;20046;-77
2022/07/16 02:08:56;;;;;;;4.82;1.55;;;;;;;12.12;71.61;101198.53;5151219;27;20967;-77
2022/07/16 02:12:00;;;;;;;2.72;1.20;;;;;;;12.04;71.93;101193.66;5150591;27;20042;-77
2022/07/16 02:15:05;;;;;;;3.15;1.45;;;;;;;12.19;70.87;101187.69;5150986;27;20504;-77
2022/07/16 02:18:08;;;;;;;3.00;1.38;;;;;;;11.79;72.48;101194.78;5151337;27;20095;-78
2022/07/16 02:21:12;;;;;;;4.63;1.58;;;;;;;11.72;72.09;101192.53;5150960;27;20525;-77
2022/07/16 02:24:15;;;;;;;;;;;;;;;11.60;72.30;101201.78;5152404;27;20396;-77
2022/07/16 02:27:18;;;;;;;4.30;1.08;;;;;;;11.66;72.82;101192.81;5151797;27;20054;-77
2022/07/16 02:30:22;;;;;;;3.38;1.20;;;;;;;11.72;72.70;101190.75;5150222;27;20454;-77
2022/07/16 02:33:25;;;;;;;2.92;1.10;;;;;;;11.66;72.98;101188.41;5151190;27;20288;-77
2022/07/16 02:36:28;;;;;;;5.80;1.23;;;;;;;11.84;72.33;101197.19;5150925;27;20130;-77
2022/07/16 02:39:32;;;;;;;3.47;1.52;;;;;;;11.53;73.13;101197.75;5150526;27;20122;-77
2022/07/16 02:42:35;;;;;;;4.28;1.80;;;;;;;11.52;73.08;101198.66;5150016;27;20038;-77
2022/07/16 02:45:41;;;;;;;5.38;1.92;;;;;;;11.88;71.91;101197.94;5145886;27;20107;-77
2022/07/16 02:48:44;;;;;;;5.55;1.52;;;;;;;11.49;72.57;101193.59;5149634;27;20041;-77
2022/07/16 02:51:48;;;;;;;;;;;;;;;11.32;72.93;101205.66;5150251;27;20045;-77
2022/07/16 02:54:51;;;;;;;5.25;2.00;;;;;;;11.25;73.76;101212.06;5137075;27;19917;-77
2022/07/16 02:57:55;;;;;;;3.75;1.38;;;;;;;11.27;73.73;101212.03;5150887;27;20127;-77
2022/07/16 03:00:58;;;;;;;3.60;1.83;;;;;;;11.40;73.41;101203.53;5150534;27;20080;-77
2022/07/16 03:04:01;;;;;;;;;;;;;;;11.47;73.44;101198.03;5151488;27;20096;-77
2022/07/16 03:07:05;;;;;;;5.28;1.45;;;;;;;11.38;73.47;101210.59;5150716;27;20023;-77
2022/07/16 03:10:10;;;;;;;4.85;1.60;;;;;;;11.24;73.87;101206.91;5129586;27;20457;-77
2022/07/16 03:13:15;;;;;;;5.45;1.70;;;;;;;11.12;75.03;101213.53;5129366;27;20096;-77
2022/07/16 03:16:18;;;;;;;4.30;1.35;;;;;;;11.23;74.29;101215.66;5129636;27;20559;-77
2022/07/16 03:19:21;;;;;;;6.05;1.48;;;;;;;11.17;74.20;101224.66;5130423;27;20373;-77
2022/07/16 03:22:25;;;;;;;2.42;1.10;;;;;;;11.62;71.45;101228.78;5135524;27;20058;-76
2022/07/16 03:25:29;;;;;;;4.50;1.20;;;;;;;11.33;73.18;101230.94;5137590;27;20041;-77
2022/07/16 03:28:32;;;;;;;6.97;1.60;;;;;;;11.20;73.55;101228.91;5149635;27;20073;-77
2022/07/16 03:31:35;;;;;;;4.90;1.65;;;;;;;11.04;74.13;101234.81;5129074;27;20046;-77
2022/07/16 03:34:39;;;;;;;7.60;2.05;;;;;;;11.13;74.34;101238.78;5133738;27;20042;-78
2022/07/16 03:41:04;;;;;;;4.30;1.50;;;;;;;11.23;73.86;101236.63;5153993;27;20038;-77
2022/07/16 03:44:08;;;;;;;;;;;;;;;11.13;74.42;101241.41;5154412;27;20508;-77
2022/07/16 03:47:11;;;;;;;5.22;2.03;;;;;;;11.04;75.00;101241.78;5141489;27;19934;-77
2022/07/16 03:50:15;;;;;;;4.93;1.65;;;;;;;11.05;74.45;101244.34;5154968;27;20045;-77
2022/07/16 03:53:19;;;;;;;7.43;1.55;;;;;;;11.22;73.81;101248.84;5133521;27;20046;-76
2022/07/16 03:56:24;;;;;;;;;;;;;;;11.41;73.08;101246.28;5133541;27;20092;-77
2022/07/16 03:59:27;;;;;;;3.75;1.70;;;;;;;11.08;74.14;101248.63;5133158;27;20376;-77
2022/07/16 04:02:31;;;;;;;4.65;1.50;;;;;;;10.97;74.23;101249.06;5131966;27;20046;-78
2022/07/16 04:05:34;;;;;;;3.13;1.33;;;;;;;10.87;74.39;101253.81;5140964;27;20042;-78
2022/07/16 04:08:38;;;;;;;4.40;1.42;;;;;;;11.07;74.25;101257.38;5153403;27;20561;-78
2022/07/16 04:11:42;;;;;;;3.72;1.52;;;;;;;11.22;73.68;101261.94;5153225;27;20127;-77
2022/07/16 04:14:46;;;;;;;6.20;1.25;;;;;;;11.10;74.58;101267.69;5152926;27;20050;-78
2022/07/16 04:17:49;;;;;;;4.38;1.35;;;;;;;11.17;74.35;101263.94;5153140;27;20102;-77
2022/07/16 04:20:53;;;;;;;;;;;;;;;11.08;74.82;101267.78;5149735;27;20126;-77
2022/07/16 04:23:56;;;;;;;4.20;1.35;;;;;;;11.11;75.02;101259.81;5148858;27;19937;-77
2022/07/16 04:26:59;;;;;;;3.80;1.27;;;;;;;11.13;74.83;101251.88;5150527;27;20095;-77
2022/07/16 04:30:03;;;;;;;3.92;1.25;;;;;;;11.20;74.96;101255.94;5149910;27;20095;-77
2022/07/16 04:33:06;;;;;;;;;;;;;;;11.41;73.59;101251.53;5152996;27;20050;-77
2022/07/16 04:36:10;;;;;;;;;;;;;;;10.93;75.74;101250.97;5150122;27;19917;-77
2022/07/16 04:39:13;;;;;;;5.35;1.38;;;;;;;11.08;75.28;101249.47;5151745;27;20454;-77
2022/07/16 04:42:17;;;;;;;4.43;1.40;;;;;;;11.04;75.26;101247.03;5124444;27;20179;-78
2022/07/16 04:45:21;;;;;;;6.85;1.42;;;;;;;11.53;74.00;101248.38;5152070;27;20045;-77
2022/07/16 04:48:24;;;;;;;4.00;1.50;;;;;;;11.60;72.33;101256.78;5150993;27;20042;-77
2022/07/16 04:51:30;;;;;;;3.17;1.40;;;;;;;11.76;70.97;101247.31;5150103;27;20057;-77
2022/07/16 04:54:34;;;;;;;4.32;1.40;;;;;;;12.07;69.95;101240.69;5150681;27;20397;-77
2022/07/16 04:57:37;;;;;;;3.85;1.40;;;;;;;12.13;69.72;101239.56;5151917;27;20520;-77
2022/07/16 05:00:41;;;;;;;3.28;1.58;;;;;;;12.14;69.65;101246.50;5152540;27;20091;-77
2022/07/16 05:03:53;;;;;;;2.30;1.10;;;;;;;12.01;70.18;101254.09;5138352;27;20171;-77
2022/07/16 05:06:58;;;;;;;3.58;1.60;;;;;;;11.75;71.49;101261.34;5131614;27;20053;-77
2022/07/16 05:10:08;;;;;;;3.00;1.20;;;;;;;11.88;71.38;101266.06;5133105;27;20049;-76
2022/07/16 05:13:59;;;;;;;3.50;1.38;;;;;;;12.03;70.84;101252.25;5145055;27;20041;-77
2022/07/16 05:17:02;;;;;;;5.68;1.50;;;;;;;12.22;70.61;101249.59;5139273;27;20037;-77
2022/07/16 05:20:07;;;;;;;4.65;1.30;;;;;;;11.91;71.71;101256.28;5152049;27;20081;-77
2022/07/16 05:23:10;;;;;;;4.75;1.40;;;;;;;11.94;71.46;101260.56;5152352;27;20183;-77
2022/07/16 05:26:14;;;;;;;3.38;1.40;;;;;;;12.12;71.08;101264.91;5151745;27;20048;-77
2022/07/16 05:29:18;;;;;;;4.05;1.08;;;;;;;12.26;70.72;101253.78;5152125;27;20077;-77
2022/07/16 05:32:22;;;;;;;5.15;1.30;;;;;;;12.37;70.40;101258.50;5130501;27;20046;-77
2022/07/16 05:35:25;;;;;;;2.92;1.20;;;;;;;12.34;70.67;101265.59;5130679;27;20050;-77
2022/07/16 05:38:29;;;;;;;3.90;1.10;;;;;;;12.33;70.84;101263.91;5125748;27;20065;-77
2022/07/16 05:41:32;;;;;;;3.97;1.40;;;;;;;12.55;69.98;101268.13;5131266;27;20038;-77
2022/07/16 05:44:35;;;;;;;3.75;1.23;;;;;;;12.52;70.15;101273.53;5131702;27;20610;-78
2022/07/16 05:47:39;;;;;;;4.28;1.30;;;;;;;12.56;69.97;101267.19;5110128;28;20118;-78
2022/07/16 05:50:42;;;;;;;4.65;1.88;;;;;;;12.70;69.49;101270.00;5110358;28;20038;-77
2022/07/16 05:53:45;;;;;;;3.85;1.35;;;;;;;12.98;68.74;101260.72;5117252;27;20042;-77
2022/07/16 05:56:48;;;;;;;5.20;1.33;;;;;;;13.05;68.95;101262.16;4771368;27;10000118;-77
2022/07/16 05:59:52;;;;;;;3.10;1.13;;;;;;;13.05;68.90;101267.41;5130137;27;20042;-78
2022/07/16 06:02:55;;;;;;;4.03;1.05;;;;;;;13.04;69.14;101265.69;5129817;27;20053;-77
2022/07/16 06:05:58;;;;;;;5.20;1.38;;;;;;;13.10;68.88;101265.38;5108948;28;20724;-77
2022/07/16 06:09:02;;;;;;;4.55;1.30;;;;;;;13.02;68.87;101268.41;5109118;28;20097;-77
2022/07/16 06:12:07;;;;;;;3.30;1.17;;;;;;;13.13;69.04;101270.47;5124154;27;20122;-77
2022/07/16 06:15:11;;;;;;;7.15;2.78;;;;;;;13.50;67.69;101260.72;5129771;27;20069;-77
2022/07/16 06:18:14;;;;;;;5.05;2.70;;;;;;;13.78;66.82;101264.50;5130400;27;20049;-77
2022/07/16 06:21:19;;;;;;;4.57;2.30;;;;;;;13.92;66.63;101269.88;5130580;27;20050;-77
2022/07/16 06:24:22;;;;;;;3.63;1.90;;;;;;;14.20;65.76;101266.56;5129862;27;20070;-77
2022/07/16 06:27:25;;;;;;;7.75;1.77;;;;;;;14.00;65.24;101262.38;5129583;27;20054;-77
2022/07/16 06:30:29;;;;;;;3.42;1.30;;;;;;;14.32;64.88;101259.75;5138310;27;20678;-77
2022/07/16 06:33:32;;;;;;;2.53;1.35;;;;;;;14.52;63.93;101259.53;5151370;27;20377;-77
2022/07/16 06:36:36;;;;;;;6.07;1.50;;;;;;;14.52;64.36;101264.78;5150105;27;20091;-77
2022/07/16 06:39:48;;;;;;;4.22;1.20;;;;;;;14.69;63.79;101270.88;5149534;27;20038;-75
2022/07/16 06:42:51;;;;;;;4.13;0.95;;;;;;;14.70;64.11;101259.41;5136813;27;20049;-78
2022/07/16 06:45:58;;;;;;;14.52;2.13;;;;;;;14.83;64.11;101263.00;5136698;27;20141;-78
2022/07/16 06:49:04;;;;;;;4.90;1.92;;;;;;;14.72;64.04;101255.75;5150076;27;20762;-77
2022/07/16 06:52:08;;;;;;;3.47;0.98;;;;;;;15.06;63.01;101251.09;5149081;27;20049;-77
2022/07/16 06:55:11;;;;;;;3.42;1.05;;;;;;;15.29;62.54;101257.66;5149381;27;20081;-77
2022/07/16 06:58:14;;;;;;;6.50;1.40;;;;;;;15.31;62.60;101255.75;5148388;27;20520;-77
2022/07/16 07:01:18;;;;;;;4.43;1.08;;;;;;;15.55;62.17;101256.91;5151034;27;20045;-77
2022/07/16 07:04:24;;;;;;;3.53;1.10;;;;;;;15.49;62.22;101252.00;5151224;27;20098;-77
2022/07/16 07:07:31;;;;;;;4.00;1.20;;;;;;;15.55;62.37;101258.69;5152427;27;20115;-78
2022/07/16 07:11:01;;;;;;;3.70;1.00;;;;;;;15.68;62.96;101264.09;5142060;27;20680;-78
2022/07/16 07:18:20;;;;;;;3.45;1.08;;;;;;;15.90;62.24;101256.53;5154659;27;20378;-77
2022/07/16 07:26:25;;;;;;;5.25;1.10;;;;;;;16.42;57.63;101253.19;5140703;27;20447;-77
2022/07/16 07:29:34;;;;;;;6.88;1.15;;;;;;;16.71;57.38;101253.06;5156068;22;20729;-64
2022/07/16 07:32:37;;;;;;;11.77;0.90;;;;;;;16.87;56.02;101255.56;5089220;28;20051;-65
2022/07/16 07:35:41;;;;;;;8.65;1.10;;;;;;;17.06;55.42;101255.19;5091418;28;20105;-66
2022/07/16 07:38:44;;;;;;;4.97;1.15;;;;;;;17.25;55.59;101247.69;5080159;28;20039;-64
2022/07/16 07:41:48;;;;;;;4.38;1.10;;;;;;;17.17;55.14;101252.66;5087976;28;20067;-76
2022/07/16 07:44:51;;;;;;;3.45;0.98;;;;;;;17.12;55.01;101245.03;5092083;28;20131;-76
2022/07/16 07:47:55;;;;;;;3.80;0.82;;;;;;;17.10;55.55;101248.72;5092301;28;20248;-80
2022/07/16 07:50:58;;;;;;;8.20;1.10;;;;;;;17.07;56.11;101247.16;5091946;28;20062;-76
2022/07/16 07:54:02;;;;;;;4.90;1.00;;;;;;;17.16;55.73;101240.38;5091700;28;20463;-76
2022/07/16 07:57:05;;;;;;;5.80;1.38;;;;;;;17.31;54.44;101238.50;5091700;28;20070;-79
2022/07/16 08:00:10;;;;;;;3.72;1.02;;;;;;;17.56;54.43;101249.03;5091366;28;20051;-79
2022/07/16 08:03:16;;;;;;;4.60;1.17;;;;;;;17.87;54.30;101231.03;5092066;28;20086;-79
2022/07/16 08:06:19;;;;;;;4.53;0.77;;;;;;;18.16;52.73;101239.53;5092860;28;20113;-79
2022/07/16 08:09:22;;;;;;;3.85;1.02;;;;;;;18.32;51.00;101229.50;5091327;28;20067;-83
2022/07/16 08:12:26;;;;;;;2.47;0.70;;;;;;;18.38;48.48;101229.97;5071114;28;20063;-81
2022/07/16 08:15:30;;;;;;;4.10;1.08;;;;;;;18.34;48.88;101224.91;5071309;28;20083;-82
2022/07/16 08:18:34;;;;;;;7.45;1.90;;;;;;;18.62;48.47;101227.34;5070219;28;20110;-83
2022/07/16 08:21:38;;;;;;;4.68;1.48;;;;;;;18.87;47.59;101231.66;5070848;28;20462;-83
2022/07/16 08:28:03;;;;;;;4.45;1.27;;;;;;;19.08;45.30;101235.31;5050590;28;20132;-81
2022/07/16 08:31:07;;;;;;;4.47;1.40;;;;;;;19.20;43.16;101226.41;5050792;28;20052;-81
2022/07/16 08:34:11;;;;;;;5.05;1.80;;;;;;;19.25;42.06;101232.22;5050340;28;20052;-82
2022/07/16 08:37:14;;;;;;;3.50;1.00;;;;;;;19.18;42.25;101233.66;5058434;28;20159;-81
2022/07/16 08:40:22;;;;;;;2.92;0.93;;;;;;;19.20;41.72;101237.00;5070915;28;20564;-82
2022/07/16 08:43:25;;;;;;;2.83;0.80;;;;;;;19.38;41.24;101231.25;5070459;28;20048;-81
2022/07/16 08:46:29;;;;;;;3.78;0.88;;;;;;;19.49;42.22;101236.53;5075217;28;20047;-83
2022/07/16 08:49:32;;;;;;;4.32;1.00;;;;;;;19.55;40.34;101241.38;5069673;28;20747;-83
2022/07/16 08:52:47;;;;;;;3.35;1.20;;;;;;;19.64;40.36;101234.53;5074245;28;20095;-81
2022/07/16 08:55:54;;;;;;;3.80;0.90;;;;;;;19.76;39.91;101222.13;5072016;28;20044;-78
2022/07/16 08:58:58;;;;;;;4.47;1.45;;;;;;;20.01;40.44;101231.59;5070418;28;20130;-79
2022/07/16 09:02:02;;;;;;;7.75;1.52;;;;;;;20.11;41.40;101230.72;5069957;28;20051;-78
2022/07/16 09:05:07;;;;;;;5.57;1.33;;;;;;;19.82;42.66;101234.91;5051655;28;20418;-76
2022/07/16 09:08:11;;;;;;;5.20;1.00;;;;;;;19.79;43.77;101240.44;5070671;28;20417;-80
2022/07/16 09:11:17;;;;;;;5.38;2.10;;;;;;;19.78;44.61;101254.66;5069418;28;20106;-78
2022/07/16 09:14:21;;;;;;;2.83;0.98;;;;;;;19.78;44.96;101247.53;5070109;28;20071;-82
2022/07/16 09:17:25;;;;;;;6.10;1.30;;;;;;;19.72;46.06;101254.19;5066384;28;20101;-79
2022/07/16 09:20:30;;;;;;;3.50;1.10;;;;;;;19.78;45.97;101254.66;5068546;28;20074;-78
2022/07/16 09:23:37;;;;;;;4.47;1.10;;;;;;;19.89;46.16;101252.00;5068953;28;20095;-77
2022/07/16 09:26:41;;;;;;;4.28;1.20;;;;;;;19.89;45.80;101254.66;5069520;28;20117;-82
2022/07/16 09:29:49;;;;;;;4.70;1.45;;;;;;;19.73;46.79;101258.53;5068591;28;20575;-77
2022/07/16 09:32:53;;;;;;;5.30;1.33;;;;;;;19.87;47.24;101262.72;5071469;28;20115;-80
2022/07/16 09:36:09;;;;;;;5.10;1.77;;;;;;;19.89;48.23;101257.31;5050281;28;20603;-79
2022/07/16 09:39:18;;;;;;;7.45;1.50;;;;;;;19.65;50.10;101257.44;5088790;28;20108;-82
2022/07/16 09:42:37;;;;;;;5.22;1.38;;;;;;;19.60;51.29;101265.75;5089667;28;20043;-81
2022/07/16 10:14:54;;;;;;;4.75;1.80;;;;;;;20.50;49.84;101262.94;5105295;27;20375;-78
2022/07/16 10:17:58;;;;;;;4.38;1.90;;;;;;;20.45;50.08;101275.75;5102983;28;20751;-79
2022/07/16 10:21:04;;;;;;;7.18;1.92;;;;;;;20.32;50.59;101277.72;5100593;28;20047;-74
2022/07/16 10:24:13;;;;;;;4.07;1.75;;;;;;;20.35;50.83;101278.31;5105626;28;20527;-73
2022/07/16 10:27:23;;;;;;;5.43;2.08;;;;;;;20.41;50.32;101282.28;5104194;28;20542;-75
2022/07/16 10:30:30;;;;;;;8.30;2.20;;;;;;;20.53;50.32;101283.16;5103003;28;20081;-74
2022/07/16 10:38:09;;;;;;;6.22;1.88;;;;;;;20.77;50.62;101290.88;5024868;28;20600;-73
2022/07/16 10:41:15;;;;;;;5.45;1.98;;;;;;;21.01;50.46;101285.34;5041592;28;20052;-74
2022/07/16 10:44:21;;;;;;;5.93;1.92;;;;;;;21.20;49.33;101287.28;5045934;28;20067;-73
2022/07/16 10:47:43;;;;;;;5.00;1.60;;;;;;;21.04;49.80;101287.75;5045217;28;20104;-71
2022/07/16 10:51:15;;;;;;;4.88;1.83;;;;;;;20.66;50.01;101299.75;5045489;28;20048;-71
2022/07/16 10:54:18;;;;;;;6.10;2.15;;;;;;;20.76;49.97;101291.88;5044840;28;20095;-71
2022/07/16 10:57:37;;;;;;;4.85;1.90;;;;;;;21.01;49.30;101296.81;5045238;28;20052;-71
2022/07/16 11:00:41;;;;;;;7.97;1.80;;;;;;;21.00;49.68;101288.97;5046093;28;20056;-71
2022/07/16 11:03:51;;;;;;;4.35;1.70;;;;;;;20.93;49.28;101288.66;5046014;28;20044;-71
2022/07/16 11:06:55;;;;;;;5.07;1.90;;;;;;;20.94;49.11;101287.69;5045639;28;20575;-72
2022/07/16 11:09:58;;;;;;;6.90;2.05;;;;;;;21.29;49.08;101289.16;5045260;28;20047;-72
2022/07/16 11:13:09;;;;;;;8.13;1.92;;;;;;;21.30;48.79;101296.16;5043740;28;20544;-72
2022/07/16 11:16:13;;;;;;;8.07;2.13;;;;;;;21.35;50.16;101283.34;5032071;28;20083;-72
2022/07/16 11:19:17;;;;;;;5.45;1.70;;;;;;;21.62;49.61;101280.13;5031944;28;20514;-71
2022/07/16 11:22:22;;;;;;;4.90;1.48;;;;;;;21.85;47.48;101280.75;5031439;28;20064;-72
2022/07/16 11:25:25;;;;;;;4.47;1.60;;;;;;;21.87;47.14;101262.84;5031640;28;20048;-72
2022/07/16 11:28:29;;;;;;;8.07;1.50;;;;;;;21.91;46.12;101277.56;5031368;28;20136;-71
2022/07/16 11:31:37;;;;;;;4.75;1.35;;;;;;;21.54;45.39;101283.47;5031919;28;20459;-72
2022/07/16 11:34:40;;;;;;;4.55;1.35;;;;;;;21.80;45.23;101283.00;5032113;28;20060;-72
2022/07/16 11:37:55;;;;;;;4.75;1.38;;;;;;;21.67;44.52;101274.41;5030903;28;20736;-71
2022/07/16 11:41:02;;;;;;;3.78;1.63;;;;;;;21.98;45.17;101268.03;5031649;28;20048;-72
2022/07/16 11:44:22;;;;;;;5.38;1.45;;;;;;;22.27;44.43;101265.50;5031996;28;20530;-73
2022/07/16 11:47:24;;;;;;;7.50;1.67;;;;;;;22.23;44.02;101264.06;5030680;28;20047;-73
2022/07/16 11:50:28;;;;;;;4.88;1.67;;;;;;;22.28;43.89;101271.66;5031718;28;20067;-73
2022/07/16 11:53:37;;;;;;;4.65;1.58;;;;;;;22.12;44.36;101277.50;5030974;28;20491;-72
2022/07/16 11:56:41;;;;;;;4.38;1.50;;;;;;;22.16;44.23;101278.09;5031180;28;20442;-72
2022/07/16 11:59:48;;;;;;;3.25;1.50;;;;;;;21.97;43.28;101279.69;5031205;28;20056;-72
2022/07/16 12:02:57;;;;;;;5.65;1.65;;;;;;;22.02;43.93;101282.78;5031369;28;20045;-72
2022/07/16 12:06:02;;;;;;;2.63;1.42;;;;;;;21.95;42.76;101284.31;5029900;28;20468;-72
2022/07/16 12:09:06;;;;;;;3.50;1.70;;;;;;;22.08;43.16;101275.22;5030055;28;20045;-72
2022/07/16 12:12:14;;;;;;;3.95;1.60;;;;;;;22.11;43.29;101269.63;5030496;28;20049;-72
2022/07/16 12:15:17;;;;;;;4.07;1.80;;;;;;;22.24;43.69;101268.44;5030671;28;20068;-72
2022/07/16 12:18:23;;;;;;;5.47;1.77;;;;;;;22.36;43.34;101266.47;5029620;28;20044;-71
2022/07/16 12:21:32;;;;;;;5.00;1.50;;;;;;;22.40;42.93;101270.56;5028090;28;20107;-72
2022/07/16 12:24:36;;;;;;;6.63;2.13;;;;;;;22.31;42.71;101282.03;5010244;28;20045;-72
2022/07/16 12:27:50;;;;;;;3.05;1.30;;;;;;;22.35;43.24;101278.13;5029139;28;20047;-73
2022/07/16 12:30:56;;;;;;;2.45;1.27;;;;;;;22.12;42.99;101285.47;5023363;28;20049;-73
2022/07/16 12:34:03;;;;;;;4.53;1.20;;;;;;;22.18;43.09;101289.47;5021500;28;20090;-73
2022/07/16 12:37:14;;;;;;;3.42;1.50;;;;;;;21.59;43.88;101296.34;5028123;28;20097;-73
2022/07/16 12:40:17;;;;;;;5.88;1.60;;;;;;;22.02;44.08;101288.13;5028477;28;20484;-74
2022/07/16 12:43:21;;;;;;;5.05;1.63;;;;;;;22.85;42.52;101280.66;5030057;28;20048;-72
2022/07/16 12:46:55;;;;;;;7.18;2.03;;;;;;;23.21;41.92;101291.59;5030135;28;20103;-73
2022/07/16 12:50:43;;;;;;;4.20;1.40;;;;;;;23.59;40.38;101284.44;5008987;28;20048;-73
2022/07/16 12:53:50;;;;;;;3.80;1.67;;;;;;;23.66;39.52;101274.88;5010964;28;20048;-73
2022/07/16 13:00:16;;;;;;;3.85;1.50;;;;;;;23.43;41.83;101275.22;5010176;28;20076;-74
2022/07/16 13:03:33;;;;;;;3.15;1.27;;;;;;;23.62;40.29;101274.31;5019374;28;20168;-73
2022/07/16 13:06:55;;;;;;;4.78;1.48;;;;;;;24.36;38.88;101281.38;5029491;28;20056;-73
2022/07/16 13:09:58;;;;;;;8.10;1.48;;;;;;;24.34;38.24;101274.50;5028185;28;20044;-72
2022/07/16 13:13:02;;;;;;;4.65;2.13;;;;;;;24.51;37.73;101283.56;5028032;28;20136;-72
2022/07/16 13:16:07;;;;;;;4.47;1.60;;;;;;;24.19;39.42;101298.25;5028776;28;20044;-73
2022/07/16 13:19:11;;;;;;;8.05;1.55;;;;;;;23.56;40.92;101290.09;5028810;28;20095;-73
2022/07/16 13:22:16;;;;;;;4.28;1.90;;;;;;;22.73;42.14;101297.78;5028081;28;20044;-72
2022/07/16 13:25:19;;;;;;;4.65;1.80;;;;;;;23.33;41.35;101303.78;5028211;28;20350;-72
2022/07/16 13:28:23;;;;;;;8.38;1.38;;;;;;;24.06;40.01;101303.94;5028312;28;20051;-72
2022/07/16 13:31:27;;;;;;;3.30;1.25;;;;;;;25.22;37.55;101301.41;5027484;28;20041;-73
2022/07/16 13:34:30;;;;;;;3.10;1.42;;;;;;;24.87;36.99;101286.22;5029496;28;20428;-73
2022/07/16 13:37:34;;;;;;;3.20;1.27;;;;;;;23.73;36.89;101305.34;5028659;28;20119;-74
2022/07/16 13:40:41;;;;;;;4.78;1.50;;;;;;;23.63;37.55;101301.84;5029209;28;20048;-73
2022/07/16 13:43:51;;;;;;;4.65;1.10;;;;;;;23.34;37.75;101307.28;5029402;28;20072;-73
2022/07/16 13:46:58;;;;;;;4.93;1.30;;;;;;;23.49;38.12;101299.66;5028614;28;20060;-73
2022/07/16 13:50:06;;;;;;;3.03;1.20;;;;;;;24.05;37.57;101290.72;5029460;28;20091;-73
2022/07/16 13:53:14;;;;;;;1.90;0.82;;;;;;;25.63;34.60;101299.81;5029206;28;20064;-74
2022/07/16 13:56:21;;;;;;;2.88;1.08;;;;;;;25.93;33.72;101289.56;5029503;28;20546;-73
2022/07/16 13:59:28;;;;;;;3.90;1.20;;;;;;;26.18;33.63;101288.66;5016629;28;20099;-73
2022/07/16 14:02:39;;;;;;;2.45;1.10;;;;;;;26.30;31.24;101297.22;5027887;28;20068;-73
2022/07/16 14:05:43;;;;;;;2.22;1.00;;;;;;;26.63;30.70;101290.09;5029401;28;20420;-73
2022/07/16 14:08:51;;;;;;;3.63;1.00;;;;;;;26.26;31.92;101285.16;5029343;28;20277;-73
2022/07/16 14:11:58;;;;;;;5.60;1.38;;;;;;;27.85;28.36;101285.56;5028157;28;20111;-74
2022/07/16 14:15:01;;;;;;;2.20;0.82;;;;;;;28.52;27.39;101288.53;5027057;28;20771;-74
2022/07/16 14:18:07;;;;;;;2.33;1.20;;;;;;;30.47;25.47;101275.81;5027197;28;20045;-74
2022/07/16 14:21:11;;;;;;;4.55;1.20;;;;;;;32.28;21.98;101275.91;5026850;28;20504;-73
2022/07/16 14:24:15;;;;;;;2.47;1.10;;;;;;;35.18;20.08;101266.09;5028156;28;20048;-74
2022/07/16 14:27:18;;;;;;;2.80;1.23;;;;;;;35.95;18.87;101257.44;5028461;28;20049;-75
2022/07/16 14:30:22;;;;;;;5.65;1.30;;;;;;;34.24;19.88;101271.44;5028660;28;20119;-73
2022/07/16 14:33:27;;;;;;;3.50;1.10;;;;;;;35.38;17.65;101269.41;5035131;28;20634;-74
2022/07/16 14:36:31;;;;;;;2.95;1.23;;;;;;;35.90;18.12;101270.88;5047992;28;20122;-73
2022/07/16 14:39:34;;;;;;;2.60;1.02;;;;;;;36.66;17.42;101263.94;5032531;28;20060;-75
2022/07/16 14:42:44;;;;;;;3.78;1.23;;;;;;;36.37;17.05;101271.09;5028024;28;20420;-74
2022/07/16 14:46:13;;;;;;;4.10;1.30;;;;;;;36.14;19.24;101264.50;5016212;28;20132;-75
2022/07/16 14:49:32;;;;;;;2.75;1.10;;;;;;;36.04;17.96;101262.34;5020508;28;20096;-74
2022/07/16 14:53:11;;;;;;;6.68;2.97;;;;;;;32.78;20.05;101269.09;5027716;28;20095;-74
2022/07/16 14:56:19;;;;;;;5.85;1.63;;;;;;;32.75;21.14;101266.81;5029330;28;20421;-74
2022/07/16 14:59:28;;;;;;;2.75;1.33;;;;;;;31.79;21.55;101277.81;5022725;28;20131;-74
2022/07/16 15:02:31;;;;;;;5.10;1.40;;;;;;;31.12;23.00;101276.59;5031616;28;20040;-74
2022/07/16 15:05:38;;;;;;;2.78;1.30;;;;;;;34.47;19.25;101273.56;5031640;28;20049;-74
2022/07/16 15:08:42;;;;;;;2.75;1.00;;;;;;;34.13;20.10;101276.72;5031733;28;20119;-75
2022/07/16 15:11:50;;;;;;;4.75;1.30;;;;;;;31.72;21.24;101290.47;5028908;28;20554;-74
2022/07/16 15:14:53;;;;;;;2.30;1.00;;;;;;;31.73;20.94;101274.03;5030385;28;20040;-74
2022/07/16 15:17:57;;;;;;;2.45;1.45;;;;;;;30.61;22.33;101275.94;5028227;28;20140;-74
2022/07/16 15:21:01;;;;;;;6.20;1.55;;;;;;;34.01;20.87;101277.41;5030653;28;20121;-74
2022/07/16 15:24:07;;;;;;;3.60;1.15;;;;;;;33.10;19.97;101277.44;5025961;28;20041;-74